Time;durP1;ratioP1;P1;durP2;ratioP2;P2;SDS_P1;SDS_P2;PMS_P1;PMS_P2;Temp;Humidity;BMP_temperature;BMP_pressure;BME280_temperature;BME280_humidity;BME280_pressure;Samples;Min_cycle;Max_cycle;Signal;HPM_P1;HPM_P2
2023/01/16 00:01:56;;;;;;;48.88;42.00;;;;;;;;;;10178345;28;20105;-69
2023/01/16 00:06:50;;;;;;;54.70;46.38;;;;;;;;;;10162413;28;20076;-70
2023/01/16 00:11:44;;;;;;;63.72;52.30;;;;;;;;;;10178560;28;20044;-70
2023/01/16 00:16:38;;;;;;;71.70;54.53;;;;;;;;;;10180628;28;20052;-70
2023/01/16 00:21:32;;;;;;;73.88;56.90;;;;;;;;;;10181531;28;20044;-71
2023/01/16 00:26:27;;;;;;;75.97;58.25;;;;;;;;;;10177990;28;20052;-70
2023/01/16 00:31:23;;;;;;;79.32;58.88;;;;;;;;;;10180091;28;20119;-70
2023/01/16 00:36:17;;;;;;;76.80;63.90;;;;;;;;;;10179957;28;20075;-71
2023/01/16 00:41:11;;;;;;;77.75;60.03;;;;;;;;;;10177766;28;20076;-70
2023/01/16 00:46:05;;;;;;;82.38;65.35;;;;;;;;;;10194315;27;20073;-69
2023/01/16 00:50:59;;;;;;;78.07;59.70;;;;;;;;;;10211797;27;20121;-69
2023/01/16 00:55:52;;;;;;;76.38;59.80;;;;;;;;;;10209253;27;20054;-70
2023/01/16 01:00:46;;;;;;;75.63;59.30;;;;;;;;;;10210416;27;20556;-70
2023/01/16 01:05:40;;;;;;;77.80;59.90;;;;;;;;;;10211545;27;20126;-70
2023/01/16 01:10:36;;;;;;;80.72;62.67;;;;;;;;;;10212737;27;20074;-71
2023/01/16 01:15:31;;;;;;;84.78;62.33;;;;;;;;;;10205090;27;20066;-72
2023/01/16 01:20:25;;;;;;;81.03;65.03;;;;;;;;;;10204355;27;20063;-71
2023/01/16 01:25:19;;;;;;;79.72;61.33;;;;;;;;;;10208191;27;20081;-70
2023/01/16 01:30:13;;;;;;;77.97;62.00;;;;;;;;;;10211835;27;20503;-71
2023/01/16 01:35:09;;;;;;;81.47;61.72;;;;;;;;;;10209479;28;20048;-70
2023/01/16 01:40:05;;;;;;;83.45;62.78;;;;;;;;;;10204233;27;20135;-70
2023/01/16 01:45:11;;;;;;;86.28;65.05;;;;;;;;;;10199400;28;20048;-70
2023/01/16 01:50:42;;;;;;;82.32;62.95;;;;;;;;;;10161662;28;20132;-70
2023/01/16 01:55:35;;;;;;;;;;;;;;;;;;10161891;28;20052;-70
2023/01/16 02:00:34;;;;;;;85.47;64.38;;;;;;;;;;10178473;28;19926;-70
2023/01/16 02:05:38;;;;;;;80.85;65.38;;;;;;;;;;10178452;28;20093;-70
2023/01/16 02:10:42;;;;;;;89.53;65.40;;;;;;;;;;10180452;28;20044;-70
2023/01/16 02:15:36;;;;;;;83.85;61.47;;;;;;;;;;10160843;28;20082;-70
2023/01/16 02:20:32;;;;;;;79.47;63.40;;;;;;;;;;10163631;28;20078;-70
2023/01/16 02:25:49;;;;;;;81.68;66.78;;;;;;;;;;10179594;28;20127;-70
2023/01/16 02:30:57;;;;;;;82.72;61.90;;;;;;;;;;10178069;28;20080;-70
2023/01/16 02:36:04;;;;;;;86.93;63.63;;;;;;;;;;10179973;28;20044;-70
2023/01/16 02:41:16;;;;;;;94.68;69.28;;;;;;;;;;10177709;28;20040;-70
2023/01/16 02:46:19;;;;;;;79.57;62.33;;;;;;;;;;10163527;28;20097;-70
2023/01/16 02:51:23;;;;;;;86.13;64.75;;;;;;;;;;10179228;28;20052;-70
2023/01/16 02:56:22;;;;;;;82.60;65.25;;;;;;;;;;10182097;28;20566;-69
2023/01/16 03:01:18;;;;;;;88.05;63.45;;;;;;;;;;10186301;28;20496;-69
2023/01/16 03:06:17;;;;;;;96.40;70.60;;;;;;;;;;10188036;28;20052;-69
2023/01/16 03:11:22;;;;;;;87.25;70.40;;;;;;;;;;10188429;28;20038;-69
2023/01/16 03:16:40;;;;;;;92.47;71.00;;;;;;;;;;10185680;28;20479;-69
2023/01/16 03:21:45;;;;;;;78.72;65.38;;;;;;;;;;10162484;28;20477;-69
2023/01/16 03:26:47;;;;;;;87.47;65.65;;;;;;;;;;10177861;28;20135;-69
2023/01/16 03:31:49;;;;;;;87.03;65.28;;;;;;;;;;10187482;28;20072;-69
2023/01/16 03:36:55;;;;;;;81.88;63.78;;;;;;;;;;10168897;28;20055;-69
2023/01/16 03:41:49;;;;;;;81.95;63.85;;;;;;;;;;10188670;28;20051;-69
2023/01/16 03:46:51;;;;;;;81.60;64.80;;;;;;;;;;10167722;28;20052;-69
2023/01/16 03:52:04;;;;;;;80.32;64.97;;;;;;;;;;10185945;28;20048;-71
2023/01/16 03:57:23;;;;;;;77.97;60.38;;;;;;;;;;10188516;28;20044;-68
2023/01/16 04:02:19;;;;;;;77.35;60.85;;;;;;;;;;10164722;28;20054;-68
2023/01/16 04:07:21;;;;;;;80.20;62.70;;;;;;;;;;10187428;28;20618;-68
2023/01/16 04:12:19;;;;;;;74.90;56.85;;;;;;;;;;10166365;28;20085;-68
2023/01/16 04:17:14;;;;;;;76.60;59.63;;;;;;;;;;10167421;28;20052;-68
2023/01/16 04:22:07;;;;;;;81.18;61.92;;;;;;;;;;10169808;28;20060;-68
2023/01/16 04:27:01;;;;;;;80.55;61.38;;;;;;;;;;10173465;28;20067;-68
2023/01/16 04:31:55;;;;;;;80.72;59.80;;;;;;;;;;10184736;28;20807;-68
2023/01/16 04:36:49;;;;;;;77.63;62.40;;;;;;;;;;10184236;28;20079;-68
2023/01/16 04:41:42;;;;;;;76.82;59.42;;;;;;;;;;10185848;28;20052;-68
2023/01/16 04:46:38;;;;;;;79.47;61.88;;;;;;;;;;10209149;27;20051;-68
2023/01/16 04:51:31;;;;;;;86.25;58.13;;;;;;;;;;10215780;27;20050;-68
2023/01/16 04:56:25;;;;;;;77.93;59.03;;;;;;;;;;10212463;27;20044;-68
2023/01/16 05:01:19;;;;;;;83.60;62.00;;;;;;;;;;10218277;27;20549;-68
2023/01/16 05:06:12;;;;;;;79.88;61.67;;;;;;;;;;10220515;27;20047;-68
2023/01/16 05:11:06;;;;;;;78.30;60.88;;;;;;;;;;10209115;27;20515;-68
2023/01/16 05:16:01;;;;;;;82.18;64.90;;;;;;;;;;10224659;27;20074;-68
2023/01/16 05:20:55;;;;;;;77.55;62.33;;;;;;;;;;10204046;28;20421;-68
2023/01/16 05:25:50;;;;;;;84.18;60.70;;;;;;;;;;10193700;28;20043;-68
2023/01/16 05:30:47;;;;;;;76.40;60.95;;;;;;;;;;10214271;28;20078;-68
2023/01/16 05:35:41;;;;;;;76.95;59.88;;;;;;;;;;10203434;27;20055;-68
2023/01/16 05:40:35;;;;;;;77.93;59.35;;;;;;;;;;10214083;28;20044;-68
2023/01/16 05:45:28;;;;;;;74.53;58.75;;;;;;;;;;10216661;28;20060;-68
2023/01/16 05:50:22;;;;;;;82.32;60.42;;;;;;;;;;10208310;28;20044;-68
2023/01/16 05:55:16;;;;;;;80.00;64.03;;;;;;;;;;10224802;28;20108;-68
2023/01/16 06:00:12;;;;;;;84.32;62.85;;;;;;;;;;10224457;28;20047;-68
2023/01/16 06:05:09;;;;;;;89.95;65.68;;;;;;;;;;10220087;28;20123;-70
2023/01/16 06:10:04;;;;;;;78.85;62.60;;;;;;;;;;10210569;28;20048;-70
2023/01/16 06:14:58;;;;;;;85.15;64.85;;;;;;;;;;10203677;28;20048;-67
2023/01/16 06:19:51;;;;;;;76.97;60.97;;;;;;;;;;10214074;28;20048;-69
2023/01/16 06:24:45;;;;;;;87.47;65.25;;;;;;;;;;10204916;28;20081;-68
2023/01/16 06:29:39;;;;;;;83.50;65.28;;;;;;;;;;10220430;28;20132;-69
2023/01/16 06:34:33;;;;;;;77.45;61.20;;;;;;;;;;10219471;27;20062;-66
2023/01/16 06:39:29;;;;;;;83.07;66.88;;;;;;;;;;10249450;27;20464;-69
2023/01/16 06:44:22;;;;;;;90.18;65.90;;;;;;;;;;10253410;27;20593;-68
2023/01/16 06:49:17;;;;;;;85.32;64.70;;;;;;;;;;10245457;27;20043;-68
2023/01/16 06:54:10;;;;;;;86.05;66.93;;;;;;;;;;10237866;27;20051;-68
2023/01/16 06:59:04;;;;;;;93.47;71.00;;;;;;;;;;10242152;27;20051;-68
2023/01/16 07:03:58;;;;;;;99.63;73.80;;;;;;;;;;10226081;27;20043;-67
2023/01/16 07:08:52;;;;;;;87.90;71.70;;;;;;;;;;10238207;27;20105;-67
2023/01/16 07:13:46;;;;;;;102.45;76.85;;;;;;;;;;10239519;27;20560;-67
2023/01/16 07:24:06;;;;;;;94.45;72.32;;;;;;;;;;10235606;27;20118;-67
2023/01/16 07:29:02;;;;;;;91.97;68.93;;;;;;;;;;10211858;27;20043;-66
2023/01/16 07:33:56;;;;;;;96.50;70.13;;;;;;;;;;10239907;27;20056;-66
2023/01/16 07:38:49;;;;;;;105.38;75.53;;;;;;;;;;10238302;27;20049;-66
2023/01/16 07:43:43;;;;;;;93.78;67.50;;;;;;;;;;10223095;27;20441;-64
2023/01/16 07:48:36;;;;;;;98.45;68.68;;;;;;;;;;10220828;27;20048;-64
2023/01/16 07:53:31;;;;;;;95.95;67.65;;;;;;;;;;10246210;27;20132;-64
2023/01/16 07:58:28;;;;;;;86.55;61.60;;;;;;;;;;10242921;27;20134;-64
2023/01/16 08:03:23;;;;;;;82.03;59.10;;;;;;;;;;10232907;27;20055;-64
2023/01/16 08:08:18;;;;;;;85.63;62.05;;;;;;;;;;10257707;27;20130;-64
2023/01/16 08:13:12;;;;;;;87.22;58.85;;;;;;;;;;10242595;27;20059;-64
2023/01/16 08:18:06;;;;;;;81.72;60.70;;;;;;;;;;10236804;27;20051;-64
2023/01/16 08:23:01;;;;;;;82.38;60.47;;;;;;;;;;10206730;27;20048;-64
2023/01/16 08:27:54;;;;;;;76.97;55.60;;;;;;;;;;10246577;27;20059;-65
2023/01/16 08:32:48;;;;;;;77.65;56.10;;;;;;;;;;10217595;28;20048;-65
2023/01/16 08:37:49;;;;;;;75.32;51.88;;;;;;;;;;10224035;27;20051;-65
2023/01/16 08:53:07;;;;;;;66.82;46.47;;;;;;;;;;10220420;27;20109;-65
2023/01/16 08:58:00;;;;;;;72.20;47.28;;;;;;;;;;10187593;28;20051;-65
2023/01/16 09:02:55;;;;;;;63.75;43.42;;;;;;;;;;10221094;27;20138;-65
2023/01/16 09:07:49;;;;;;;59.75;42.03;;;;;;;;;;10222125;28;20097;-65
2023/01/16 09:17:55;;;;;;;55.60;38.78;;;;;;;;;;10223498;28;20480;-64
2023/01/16 09:22:49;;;;;;;56.33;36.60;;;;;;;;;;10222853;27;20487;-64
2023/01/16 09:27:46;;;;;;;55.50;36.88;;;;;;;;;;10224287;28;20130;-64
2023/01/16 09:32:40;;;;;;;54.33;34.95;;;;;;;;;;10226342;28;20047;-64
2023/01/16 09:37:34;;;;;;;46.25;30.88;;;;;;;;;;10223606;28;20103;-64
2023/01/16 09:48:04;;;;;;;44.05;29.70;;;;;;;;;;10228307;28;20059;-64
2023/01/16 09:58:35;;;;;;;38.88;27.50;;;;;;;;;;10058203;28;20120;-64
2023/01/16 10:03:28;;;;;;;36.03;26.02;;;;;;;;;;10223092;28;20088;-64
2023/01/16 10:08:59;;;;;;;36.00;28.20;;;;;;;;;;10236452;27;20052;-64
2023/01/16 10:13:57;;;;;;;;;;;;;;;;;;10133471;27;20415;-64
2023/01/16 10:19:01;;;;;;;35.63;27.02;;;;;;;;;;10252174;27;20743;-64
2023/01/16 10:24:03;;;;;;;38.53;28.02;;;;;;;;;;10217688;28;20048;-64
2023/01/16 10:29:44;;;;;;;32.55;25.38;;;;;;;;;;10232394;27;20055;-64
2023/01/16 10:34:53;;;;;;;39.60;24.63;;;;;;;;;;10181416;27;20051;-64
2023/01/16 10:39:50;;;;;;;37.60;26.73;;;;;;;;;;10224419;27;20059;-64
2023/01/16 10:50:04;;;;;;;38.17;26.43;;;;;;;;;;10202937;27;20496;-63
2023/01/16 10:54:58;;;;;;;37.72;26.30;;;;;;;;;;10203931;27;20298;-66
2023/01/16 10:59:57;;;;;;;35.85;24.85;;;;;;;;;;10228738;27;20102;-65
2023/01/16 11:04:52;;;;;;;39.45;24.55;;;;;;;;;;10214583;27;20113;-64
2023/01/16 11:09:46;;;;;;;37.63;25.95;;;;;;;;;;10228141;27;20411;-65
2023/01/16 11:19:52;;;;;;;39.28;26.92;;;;;;;;;;10211796;27;20040;-64
2023/01/16 11:24:47;;;;;;;37.50;25.88;;;;;;;;;;10225857;27;20137;-64
2023/01/16 11:29:42;;;;;;;39.40;27.00;;;;;;;;;;10232896;27;20523;-64
2023/01/16 11:34:39;;;;;;;39.28;26.15;;;;;;;;;;10214871;27;20048;-66
2023/01/16 11:39:34;;;;;;;40.70;27.33;;;;;;;;;;10225232;27;20082;-64
2023/01/16 11:50:09;;;;;;;40.60;29.40;;;;;;;;;;10201019;27;20047;-67
2023/01/16 11:55:05;;;;;;;42.88;30.13;;;;;;;;;;10217667;27;20048;-67
2023/01/16 12:00:23;;;;;;;46.72;32.58;;;;;;;;;;10223495;27;20051;-68
2023/01/16 12:05:54;;;;;;;53.65;38.97;;;;;;;;;;10223397;27;20575;-68
2023/01/16 12:11:07;;;;;;;57.25;39.72;;;;;;;;;;10224717;27;20763;-68
2023/01/16 12:16:10;;;;;;;62.13;43.08;;;;;;;;;;10205248;27;20475;-67
2023/01/16 12:21:09;;;;;;;64.35;46.65;;;;;;;;;;10220662;27;20092;-68
2023/01/16 12:26:22;;;;;;;60.55;45.92;;;;;;;;;;10219228;27;20532;-68
2023/01/16 12:31:38;;;;;;;66.65;46.53;;;;;;;;;;10199914;27;20129;-67
2023/01/16 12:36:47;;;;;;;65.85;42.60;;;;;;;;;;10215966;27;20407;-69
2023/01/16 12:47:05;;;;;;;65.80;46.65;;;;;;;;;;10220154;27;20151;-69
2023/01/16 12:52:16;;;;;;;62.67;44.38;;;;;;;;;;10215473;27;20048;-69
2023/01/16 12:57:41;;;;;;;66.45;44.53;;;;;;;;;;10217840;27;20540;-69
2023/01/16 13:02:59;;;;;;;62.40;43.53;;;;;;;;;;10178637;27;20123;-69
2023/01/16 13:07:56;;;;;;;68.68;46.78;;;;;;;;;;10216217;27;20127;-69
2023/01/16 13:13:24;;;;;;;51.50;36.58;;;;;;;;;;10142134;27;20515;-69
2023/01/16 13:18:31;;;;;;;64.72;43.08;;;;;;;;;;10129327;28;20497;-69
2023/01/16 13:23:29;;;;;;;74.40;47.50;;;;;;;;;;10138248;28;20056;-69
2023/01/16 13:28:36;;;;;;;47.55;33.72;;;;;;;;;;10121779;28;20080;-69
2023/01/16 13:33:33;;;;;;;63.08;42.90;;;;;;;;;;10126704;28;20041;-70
2023/01/16 13:38:46;;;;;;;67.20;46.05;;;;;;;;;;10125825;28;20076;-70
2023/01/16 13:49:09;;;;;;;63.28;43.42;;;;;;;;;;10125250;28;20516;-68
2023/01/16 13:54:05;;;;;;;55.55;40.15;;;;;;;;;;10119671;28;20041;-68
2023/01/16 13:59:07;;;;;;;57.17;41.95;;;;;;;;;;10121057;28;20141;-67
2023/01/16 14:04:15;;;;;;;56.25;38.42;;;;;;;;;;10124105;28;20501;-68
2023/01/16 14:09:17;;;;;;;54.78;38.95;;;;;;;;;;10124205;28;20421;-68
2023/01/16 14:19:56;;;;;;;64.57;44.28;;;;;;;;;;10126541;28;20059;-67
2023/01/16 14:24:55;;;;;;;69.72;44.38;;;;;;;;;;10122687;28;20055;-68
2023/01/16 14:30:14;;;;;;;64.43;43.20;;;;;;;;;;10144415;28;20119;-68
2023/01/16 14:35:16;;;;;;;60.28;38.95;;;;;;;;;;10122784;28;20740;-68
2023/01/16 14:40:09;;;;;;;51.13;37.85;;;;;;;;;;10117096;28;20053;-68
2023/01/16 14:56:00;;;;;;;32.72;23.45;;;;;;;;;;10123569;28;20084;-68
2023/01/16 15:02:18;;;;;;;2.40;2.20;;;;;;;;;;10152639;28;20040;-68
2023/01/16 15:06:09;;;;;;;1.50;1.40;;;;;;;;;;10132530;28;20072;-68
2023/01/16 15:11:31;;;;;;;3.88;2.45;;;;;;;;;;10160103;28;20102;-67
2023/01/16 15:26:59;;;;;;;3.22;2.50;;;;;;;;;;10140533;28;20059;-68
2023/01/16 15:32:02;;;;;;;6.53;2.67;;;;;;;;;;10116101;28;20045;-68
2023/01/16 15:37:00;;;;;;;2.95;1.80;;;;;;;;;;10139637;28;20105;-68
2023/01/16 15:47:43;;;;;;;4.80;3.90;;;;;;;;;;10139441;28;20075;-68
2023/01/16 15:52:39;;;;;;;3.10;2.80;;;;;;;;;;10134462;28;20123;-68
2023/01/16 15:57:34;;;;;;;2.05;1.85;;;;;;;;;;10130427;28;20461;-69
2023/01/16 16:02:29;;;;;;;2.22;2.13;;;;;;;;;;10122859;28;20383;-68
2023/01/16 16:07:23;;;;;;;4.40;4.10;;;;;;;;;;10127007;28;20049;-68
2023/01/16 16:12:18;;;;;;;4.07;3.67;;;;;;;;;;10116337;28;20052;-69
2023/01/16 16:22:49;;;;;;;4.13;3.72;;;;;;;;;;10111886;28;20378;-68
2023/01/16 16:27:43;;;;;;;5.85;4.30;;;;;;;;;;10117387;28;20053;-69
2023/01/16 16:32:37;;;;;;;2.90;2.60;;;;;;;;;;10130895;28;20033;-68
2023/01/16 16:37:31;;;;;;;3.10;2.67;;;;;;;;;;10126665;28;20045;-69
2023/01/16 16:42:29;;;;;;;1.98;1.88;;;;;;;;;;10123732;28;20049;-75
2023/01/16 16:47:28;;;;;;;4.07;3.20;;;;;;;;;;10111063;28;20740;-70
2023/01/16 16:52:31;;;;;;;4.57;4.18;;;;;;;;;;10116781;28;20088;-69
2023/01/16 16:57:26;;;;;;;4.60;4.20;;;;;;;;;;10130819;28;20040;-69
2023/01/16 17:02:20;;;;;;;4.10;3.70;;;;;;;;;;10123681;28;20110;-68
2023/01/16 17:07:14;;;;;;;8.63;6.03;;;;;;;;;;10123750;28;20057;-69
2023/01/16 17:12:17;;;;;;;8.00;5.80;;;;;;;;;;10117375;28;20056;-69
2023/01/16 17:17:16;;;;;;;7.78;7.07;;;;;;;;;;10106699;28;20048;-69
2023/01/16 17:22:10;;;;;;;9.77;5.50;;;;;;;;;;10141591;28;20062;-68
2023/01/16 17:27:09;;;;;;;5.35;4.80;;;;;;;;;;10114080;28;20045;-68
2023/01/16 17:32:32;;;;;;;5.00;4.60;;;;;;;;;;10119290;28;20366;-69
2023/01/16 17:37:26;;;;;;;5.03;4.53;;;;;;;;;;10120422;28;20045;-70
2023/01/16 17:47:32;;;;;;;36.90;23.73;;;;;;;;;;10141912;28;20088;-69
2023/01/16 17:52:28;;;;;;;53.33;34.35;;;;;;;;;;10115636;28;20048;-68
2023/01/16 17:57:22;;;;;;;54.95;33.92;;;;;;;;;;10111927;28;20175;-69
2023/01/16 18:02:15;;;;;;;64.70;39.53;;;;;;;;;;10118525;28;20493;-69
2023/01/16 18:07:09;;;;;;;57.92;37.00;;;;;;;;;;10105179;28;20049;-69
2023/01/16 18:17:26;;;;;;;61.25;39.53;;;;;;;;;;10115041;28;20051;-70
2023/01/16 18:22:36;;;;;;;56.03;33.33;;;;;;;;;;10120704;28;20472;-70
2023/01/16 18:27:30;;;;;;;51.97;36.20;;;;;;;;;;10129034;28;20052;-69
2023/01/16 18:32:27;;;;;;;64.05;36.65;;;;;;;;;;10126829;28;20513;-69
2023/01/16 18:37:29;;;;;;;52.00;33.30;;;;;;;;;;10137615;28;20056;-70
2023/01/16 19:03:52;;;;;;;60.47;35.28;;;;;;;;;;10117655;28;20162;-68
2023/01/16 19:09:05;;;;;;;59.40;39.08;;;;;;;;;;10111987;28;20063;-68
2023/01/16 19:13:58;;;;;;;59.08;36.08;;;;;;;;;;10134955;28;20140;-68
2023/01/16 19:18:52;;;;;;;63.05;38.45;;;;;;;;;;10130860;28;20049;-68
2023/01/16 19:24:17;;;;;;;71.38;41.72;;;;;;;;;;10122429;28;20099;-69
2023/01/16 19:29:20;;;;;;;68.57;40.72;;;;;;;;;;10133825;28;20049;-68
2023/01/16 19:34:37;;;;;;;63.17;40.25;;;;;;;;;;10134929;28;20535;-68
2023/01/16 19:39:47;;;;;;;58.95;36.70;;;;;;;;;;10113791;28;20128;-68
2023/01/16 19:49:53;;;;;;;62.42;37.85;;;;;;;;;;10109946;28;20098;-68
2023/01/16 19:54:46;;;;;;;58.80;37.33;;;;;;;;;;10111677;28;20040;-68
2023/01/16 19:59:40;;;;;;;60.50;37.72;;;;;;;;;;10110470;28;20127;-73
2023/01/16 20:04:38;;;;;;;55.10;34.25;;;;;;;;;;10144923;28;20055;-69
2023/01/16 20:09:37;;;;;;;57.45;35.10;;;;;;;;;;10108946;28;20045;-66
2023/01/16 20:14:30;;;;;;;56.60;35.97;;;;;;;;;;10108860;28;20083;-67
2023/01/16 20:19:28;;;;;;;51.03;33.50;;;;;;;;;;10112169;28;20477;-68
2023/01/16 20:24:22;;;;;;;55.28;35.55;;;;;;;;;;10135374;28;20075;-68
2023/01/16 20:29:22;;;;;;;53.28;34.05;;;;;;;;;;10131519;28;20040;-68
2023/01/16 20:34:15;;;;;;;51.92;34.38;;;;;;;;;;10120250;28;20488;-69
2023/01/16 20:39:10;;;;;;;52.55;32.60;;;;;;;;;;10115883;28;20055;-68
2023/01/16 20:49:20;;;;;;;45.85;29.90;;;;;;;;;;10126214;28;20072;-68
2023/01/16 20:54:15;;;;;;;52.08;33.45;;;;;;;;;;10116884;28;20562;-68
2023/01/16 20:59:08;;;;;;;52.63;35.00;;;;;;;;;;10118082;28;20044;-68
2023/01/16 21:04:01;;;;;;;52.13;33.33;;;;;;;;;;10125406;28;20060;-68
2023/01/16 21:08:56;;;;;;;51.65;33.30;;;;;;;;;;10130941;28;20113;-69
2023/01/16 21:24:14;;;;;;;55.67;32.42;;;;;;;;;;10121098;28;20052;-69
2023/01/16 21:29:09;;;;;;;45.20;29.48;;;;;;;;;;10124102;28;20110;-68
2023/01/16 21:34:06;;;;;;;47.70;33.33;;;;;;;;;;10121618;28;20048;-68
2023/01/16 21:39:01;;;;;;;51.72;32.55;;;;;;;;;;10127008;28;20063;-69
2023/01/16 21:49:07;;;;;;;41.00;28.50;;;;;;;;;;10125540;28;20051;-70
2023/01/16 21:54:01;;;;;;;46.90;27.58;;;;;;;;;;10127302;28;20036;-69
2023/01/16 21:58:56;;;;;;;46.28;30.08;;;;;;;;;;10128724;28;20424;-69
2023/01/16 22:03:49;;;;;;;40.80;28.65;;;;;;;;;;10125468;28;20046;-68
2023/01/16 22:08:42;;;;;;;42.58;28.67;;;;;;;;;;10132624;28;20531;-69
2023/01/16 22:18:54;;;;;;;44.30;28.55;;;;;;;;;;10135119;28;20071;-69
2023/01/16 22:23:53;;;;;;;45.17;26.20;;;;;;;;;;10136355;28;20064;-70
2023/01/16 22:28:47;;;;;;;41.15;27.20;;;;;;;;;;10135379;28;20047;-70
2023/01/16 22:33:41;;;;;;;41.38;26.95;;;;;;;;;;10131952;28;20052;-69
2023/01/16 22:38:38;;;;;;;41.78;27.70;;;;;;;;;;10134636;28;20052;-69
2023/01/16 22:48:43;;;;;;;49.60;29.58;;;;;;;;;;10132440;28;20049;-67
2023/01/16 22:53:39;;;;;;;45.78;28.40;;;;;;;;;;10134851;28;20064;-67
2023/01/16 22:58:35;;;;;;;41.55;26.75;;;;;;;;;;10134049;28;20136;-68
2023/01/16 23:03:31;;;;;;;55.15;28.73;;;;;;;;;;10131853;28;20132;-68
2023/01/16 23:08:25;;;;;;;40.40;27.55;;;;;;;;;;10133333;28;20465;-69
2023/01/16 23:13:19;;;;;;;45.50;29.77;;;;;;;;;;10130702;28;20106;-68
2023/01/16 23:18:13;;;;;;;46.80;30.05;;;;;;;;;;10124961;28;20056;-68
2023/01/16 23:23:07;;;;;;;48.47;29.92;;;;;;;;;;10131603;28;20075;-68
2023/01/16 23:28:01;;;;;;;44.58;29.13;;;;;;;;;;10133649;28;20370;-68
2023/01/16 23:32:56;;;;;;;46.08;27.77;;;;;;;;;;10130122;28;20148;-68
2023/01/16 23:37:49;;;;;;;50.75;28.60;;;;;;;;;;10132927;28;20132;-68
2023/01/16 23:48:10;;;;;;;43.80;29.25;;;;;;;;;;10129590;28;20053;-70
2023/01/16 23:53:04;;;;;;;49.58;30.58;;;;;;;;;;10130986;28;20052;-71
2023/01/16 23:57:59;;;;;;;40.78;27.90;;;;;;;;;;10134588;28;20386;-70
